Terminal Aerodrome Forecast
Issued by NWS Cleveland, OH

Home | Current Version | Previous Version | Text Only | Print | Product List | Glossary On
Versions: 1 2 3 4 5 6 7 8 9 10 11 12 13 14 15 16 17 18
000
FTUS41 KCLE 220203 AAA
TAFMFD
TAF AMD
KMFD 220203Z 2202/2224 18008KT P6SM OVC012
      TEMPO 2202/2206 5SM -SHRA BR OVC008
     FM220600 18008KT 6SM BR OVC008 WS020/20035KT
      TEMPO 2206/2210 3SM -SHRA BR OVC004
     FM221300 18015G25KT P6SM OVC035
     FM222300 18012KT 3SM -RA BR OVC012=

USA.gov is the U.S. government's official web portal to all federal, state and local government web resources and services.